sensor_id;sensor_type;location;lat;lon;timestamp;P1;durP1;ratioP1;P2;durP2;ratioP2
9445;SDS011;4761;49.490;10.908;2023-09-19T00:01:14;0.70;;;0.70;;
9445;SDS011;4761;49.490;10.908;2023-09-19T00:03:40;1.48;;;0.88;;
9445;SDS011;4761;49.490;10.908;2023-09-19T00:06:07;1.75;;;0.80;;
9445;SDS011;4761;49.490;10.908;2023-09-19T00:08:33;0.70;;;0.70;;
9445;SDS011;4761;49.490;10.908;2023-09-19T00:10:59;1.75;;;0.82;;
9445;SDS011;4761;49.490;10.908;2023-09-19T00:13:31;0.73;;;0.70;;
9445;SDS011;4761;49.490;10.908;2023-09-19T00:15:57;0.73;;;0.73;;
9445;SDS011;4761;49.490;10.908;2023-09-19T00:18:24;0.73;;;0.73;;
9445;SDS011;4761;49.490;10.908;2023-09-19T00:20:57;0.98;;;0.70;;
9445;SDS011;4761;49.490;10.908;2023-09-19T00:23:23;1.52;;;0.75;;
9445;SDS011;4761;49.490;10.908;2023-09-19T00:25:49;0.65;;;0.65;;
9445;SDS011;4761;49.490;10.908;2023-09-19T00:28:16;0.75;;;0.75;;
9445;SDS011;4761;49.490;10.908;2023-09-19T00:30:43;0.60;;;0.60;;
9445;SDS011;4761;49.490;10.908;2023-09-19T00:33:09;1.38;;;0.70;;
9445;SDS011;4761;49.490;10.908;2023-09-19T00:35:36;0.90;;;0.70;;
9445;SDS011;4761;49.490;10.908;2023-09-19T00:38:02;0.68;;;0.68;;
9445;SDS011;4761;49.490;10.908;2023-09-19T00:40:28;0.65;;;0.60;;
9445;SDS011;4761;49.490;10.908;2023-09-19T00:42:57;0.95;;;0.65;;
9445;SDS011;4761;49.490;10.908;2023-09-19T00:45:26;0.70;;;0.70;;
9445;SDS011;4761;49.490;10.908;2023-09-19T00:47:53;0.70;;;0.70;;
9445;SDS011;4761;49.490;10.908;2023-09-19T00:50:19;0.68;;;0.68;;
9445;SDS011;4761;49.490;10.908;2023-09-19T00:52:47;0.63;;;0.63;;
9445;SDS011;4761;49.490;10.908;2023-09-19T00:55:15;0.70;;;0.70;;
9445;SDS011;4761;49.490;10.908;2023-09-19T00:57:41;0.70;;;0.70;;
9445;SDS011;4761;49.490;10.908;2023-09-19T01:00:09;0.50;;;0.50;;
9445;SDS011;4761;49.490;10.908;2023-09-19T01:02:43;1.38;;;0.70;;
9445;SDS011;4761;49.490;10.908;2023-09-19T01:05:10;0.50;;;0.50;;
9445;SDS011;4761;49.490;10.908;2023-09-19T01:07:36;0.63;;;0.60;;
9445;SDS011;4761;49.490;10.908;2023-09-19T01:10:05;1.15;;;0.60;;
9445;SDS011;4761;49.490;10.908;2023-09-19T01:13:18;0.60;;;0.60;;
9445;SDS011;4761;49.490;10.908;2023-09-19T01:24:07;1.20;;;0.70;;
9445;SDS011;4761;49.490;10.908;2023-09-19T01:26:52;0.60;;;0.60;;
9445;SDS011;4761;49.490;10.908;2023-09-19T01:32:04;0.50;;;0.50;;
9445;SDS011;4761;49.490;10.908;2023-09-19T01:35:13;0.75;;;0.65;;
9445;SDS011;4761;49.490;10.908;2023-09-19T01:37:29;0.50;;;0.50;;
9445;SDS011;4761;49.490;10.908;2023-09-19T01:39:57;0.43;;;0.43;;
9445;SDS011;4761;49.490;10.908;2023-09-19T01:45:33;0.60;;;0.60;;
9445;SDS011;4761;49.490;10.908;2023-09-19T01:48:19;0.60;;;0.60;;
9445;SDS011;4761;49.490;10.908;2023-09-19T01:51:00;0.70;;;0.70;;
9445;SDS011;4761;49.490;10.908;2023-09-19T01:53:27;0.60;;;0.60;;
9445;SDS011;4761;49.490;10.908;2023-09-19T01:55:58;0.50;;;0.50;;
9445;SDS011;4761;49.490;10.908;2023-09-19T01:58:37;0.52;;;0.52;;
9445;SDS011;4761;49.490;10.908;2023-09-19T02:01:11;0.60;;;0.60;;
9445;SDS011;4761;49.490;10.908;2023-09-19T02:03:40;0.50;;;0.50;;
9445;SDS011;4761;49.490;10.908;2023-09-19T02:06:06;0.60;;;0.60;;
9445;SDS011;4761;49.490;10.908;2023-09-19T02:08:36;0.57;;;0.57;;
9445;SDS011;4761;49.490;10.908;2023-09-19T02:11:02;0.70;;;0.70;;
9445;SDS011;4761;49.490;10.908;2023-09-19T02:13:28;1.15;;;0.60;;
9445;SDS011;4761;49.490;10.908;2023-09-19T02:15:56;0.65;;;0.50;;
9445;SDS011;4761;49.490;10.908;2023-09-19T02:18:22;0.68;;;0.60;;
9445;SDS011;4761;49.490;10.908;2023-09-19T02:20:48;0.70;;;0.60;;
9445;SDS011;4761;49.490;10.908;2023-09-19T02:23:14;0.60;;;0.60;;
9445;SDS011;4761;49.490;10.908;2023-09-19T02:25:40;2.00;;;0.60;;
9445;SDS011;4761;49.490;10.908;2023-09-19T02:28:06;0.98;;;0.77;;
9445;SDS011;4761;49.490;10.908;2023-09-19T02:30:34;0.68;;;0.68;;
9445;SDS011;4761;49.490;10.908;2023-09-19T02:32:59;0.63;;;0.63;;
9445;SDS011;4761;49.490;10.908;2023-09-19T02:35:27;0.63;;;0.60;;
9445;SDS011;4761;49.490;10.908;2023-09-19T02:37:53;0.90;;;0.60;;
9445;SDS011;4761;49.490;10.908;2023-09-19T02:40:18;1.10;;;0.60;;
9445;SDS011;4761;49.490;10.908;2023-09-19T02:42:45;0.40;;;0.40;;
9445;SDS011;4761;49.490;10.908;2023-09-19T02:45:15;0.77;;;0.70;;
9445;SDS011;4761;49.490;10.908;2023-09-19T02:47:42;0.52;;;0.52;;
9445;SDS011;4761;49.490;10.908;2023-09-19T02:50:09;0.63;;;0.63;;
9445;SDS011;4761;49.490;10.908;2023-09-19T02:52:44;0.60;;;0.60;;
9445;SDS011;4761;49.490;10.908;2023-09-19T02:55:12;0.90;;;0.60;;
9445;SDS011;4761;49.490;10.908;2023-09-19T02:57:52;0.70;;;0.60;;
9445;SDS011;4761;49.490;10.908;2023-09-19T03:00:19;0.95;;;0.75;;
9445;SDS011;4761;49.490;10.908;2023-09-19T03:02:49;0.50;;;0.50;;
9445;SDS011;4761;49.490;10.908;2023-09-19T03:05:19;0.60;;;0.60;;
9445;SDS011;4761;49.490;10.908;2023-09-19T03:07:46;0.57;;;0.52;;
9445;SDS011;4761;49.490;10.908;2023-09-19T03:10:15;0.50;;;0.50;;
9445;SDS011;4761;49.490;10.908;2023-09-19T03:12:41;0.50;;;0.50;;
9445;SDS011;4761;49.490;10.908;2023-09-19T03:15:07;0.95;;;0.70;;
9445;SDS011;4761;49.490;10.908;2023-09-19T03:17:33;0.70;;;0.70;;
9445;SDS011;4761;49.490;10.908;2023-09-19T03:19:59;0.63;;;0.63;;
9445;SDS011;4761;49.490;10.908;2023-09-19T03:22:26;0.52;;;0.52;;
9445;SDS011;4761;49.490;10.908;2023-09-19T03:24:52;0.50;;;0.50;;
9445;SDS011;4761;49.490;10.908;2023-09-19T03:27:18;0.55;;;0.55;;
9445;SDS011;4761;49.490;10.908;2023-09-19T03:29:44;0.63;;;0.63;;
9445;SDS011;4761;49.490;10.908;2023-09-19T03:32:10;0.50;;;0.50;;
9445;SDS011;4761;49.490;10.908;2023-09-19T03:34:36;0.63;;;0.60;;
9445;SDS011;4761;49.490;10.908;2023-09-19T03:37:05;1.63;;;0.70;;
9445;SDS011;4761;49.490;10.908;2023-09-19T03:39:31;0.75;;;0.60;;
9445;SDS011;4761;49.490;10.908;2023-09-19T03:41:57;0.73;;;0.70;;
9445;SDS011;4761;49.490;10.908;2023-09-19T03:44:22;0.50;;;0.50;;
9445;SDS011;4761;49.490;10.908;2023-09-19T03:46:48;0.52;;;0.52;;
9445;SDS011;4761;49.490;10.908;2023-09-19T03:49:13;0.52;;;0.50;;
9445;SDS011;4761;49.490;10.908;2023-09-19T03:51:39;0.73;;;0.70;;
9445;SDS011;4761;49.490;10.908;2023-09-19T03:54:06;0.60;;;0.60;;
9445;SDS011;4761;49.490;10.908;2023-09-19T03:56:32;2.05;;;0.60;;
9445;SDS011;4761;49.490;10.908;2023-09-19T03:58:58;0.50;;;0.50;;
9445;SDS011;4761;49.490;10.908;2023-09-19T04:01:23;0.70;;;0.70;;
9445;SDS011;4761;49.490;10.908;2023-09-19T04:03:49;0.57;;;0.57;;
9445;SDS011;4761;49.490;10.908;2023-09-19T04:06:16;0.55;;;0.55;;
9445;SDS011;4761;49.490;10.908;2023-09-19T04:08:43;0.55;;;0.55;;
9445;SDS011;4761;49.490;10.908;2023-09-19T04:11:09;1.95;;;0.63;;
9445;SDS011;4761;49.490;10.908;2023-09-19T04:13:35;0.68;;;0.68;;
9445;SDS011;4761;49.490;10.908;2023-09-19T04:16:01;0.60;;;0.60;;
9445;SDS011;4761;49.490;10.908;2023-09-19T04:18:28;0.70;;;0.70;;
9445;SDS011;4761;49.490;10.908;2023-09-19T04:20:56;0.88;;;0.70;;
9445;SDS011;4761;49.490;10.908;2023-09-19T04:23:21;0.70;;;0.68;;
9445;SDS011;4761;49.490;10.908;2023-09-19T04:25:47;0.60;;;0.60;;
9445;SDS011;4761;49.490;10.908;2023-09-19T04:28:13;0.80;;;0.65;;
9445;SDS011;4761;49.490;10.908;2023-09-19T04:30:38;0.75;;;0.75;;
9445;SDS011;4761;49.490;10.908;2023-09-19T04:33:07;1.30;;;0.68;;
9445;SDS011;4761;49.490;10.908;2023-09-19T04:35:33;0.90;;;0.75;;
9445;SDS011;4761;49.490;10.908;2023-09-19T04:37:59;0.60;;;0.60;;
9445;SDS011;4761;49.490;10.908;2023-09-19T04:40:25;0.60;;;0.60;;
9445;SDS011;4761;49.490;10.908;2023-09-19T04:42:54;0.95;;;0.60;;
9445;SDS011;4761;49.490;10.908;2023-09-19T04:45:24;0.55;;;0.55;;
9445;SDS011;4761;49.490;10.908;2023-09-19T04:47:51;0.65;;;0.63;;
9445;SDS011;4761;49.490;10.908;2023-09-19T04:50:18;0.68;;;0.68;;
9445;SDS011;4761;49.490;10.908;2023-09-19T04:52:44;0.77;;;0.73;;
9445;SDS011;4761;49.490;10.908;2023-09-19T05:00:12;0.65;;;0.52;;
9445;SDS011;4761;49.490;10.908;2023-09-19T05:02:44;0.60;;;0.60;;
9445;SDS011;4761;49.490;10.908;2023-09-19T05:05:10;0.63;;;0.63;;
9445;SDS011;4761;49.490;10.908;2023-09-19T05:07:38;1.27;;;0.68;;
9445;SDS011;4761;49.490;10.908;2023-09-19T05:10:04;0.57;;;0.57;;
9445;SDS011;4761;49.490;10.908;2023-09-19T05:12:32;0.70;;;0.70;;
9445;SDS011;4761;49.490;10.908;2023-09-19T05:14:59;0.60;;;0.60;;
9445;SDS011;4761;49.490;10.908;2023-09-19T05:17:25;0.70;;;0.70;;
9445;SDS011;4761;49.490;10.908;2023-09-19T05:19:50;1.15;;;0.70;;
9445;SDS011;4761;49.490;10.908;2023-09-19T05:22:15;0.70;;;0.70;;
9445;SDS011;4761;49.490;10.908;2023-09-19T05:24:43;0.75;;;0.70;;
9445;SDS011;4761;49.490;10.908;2023-09-19T05:27:12;0.95;;;0.70;;
9445;SDS011;4761;49.490;10.908;2023-09-19T05:29:37;2.28;;;0.70;;
9445;SDS011;4761;49.490;10.908;2023-09-19T05:32:03;0.95;;;0.60;;
9445;SDS011;4761;49.490;10.908;2023-09-19T05:34:30;0.70;;;0.68;;
9445;SDS011;4761;49.490;10.908;2023-09-19T05:36:56;0.70;;;0.60;;
9445;SDS011;4761;49.490;10.908;2023-09-19T05:39:21;0.80;;;0.50;;
9445;SDS011;4761;49.490;10.908;2023-09-19T05:41:47;0.70;;;0.70;;
9445;SDS011;4761;49.490;10.908;2023-09-19T05:44:13;0.93;;;0.77;;
9445;SDS011;4761;49.490;10.908;2023-09-19T05:46:41;1.35;;;0.80;;
9445;SDS011;4761;49.490;10.908;2023-09-19T05:49:07;0.85;;;0.60;;
9445;SDS011;4761;49.490;10.908;2023-09-19T05:51:33;0.60;;;0.60;;
9445;SDS011;4761;49.490;10.908;2023-09-19T05:54:00;0.63;;;0.63;;
9445;SDS011;4761;49.490;10.908;2023-09-19T05:56:26;0.60;;;0.60;;
9445;SDS011;4761;49.490;10.908;2023-09-19T05:58:52;0.65;;;0.65;;
9445;SDS011;4761;49.490;10.908;2023-09-19T06:01:18;0.68;;;0.60;;
9445;SDS011;4761;49.490;10.908;2023-09-19T06:03:44;0.65;;;0.65;;
9445;SDS011;4761;49.490;10.908;2023-09-19T06:06:09;0.50;;;0.50;;
9445;SDS011;4761;49.490;10.908;2023-09-19T06:08:35;0.57;;;0.57;;
9445;SDS011;4761;49.490;10.908;2023-09-19T06:11:00;0.85;;;0.75;;
9445;SDS011;4761;49.490;10.908;2023-09-19T06:13:29;0.80;;;0.70;;
9445;SDS011;4761;49.490;10.908;2023-09-19T06:15:55;0.60;;;0.60;;
9445;SDS011;4761;49.490;10.908;2023-09-19T06:18:21;0.60;;;0.60;;
9445;SDS011;4761;49.490;10.908;2023-09-19T06:20:51;0.70;;;0.52;;
9445;SDS011;4761;49.490;10.908;2023-09-19T06:23:17;0.63;;;0.60;;
9445;SDS011;4761;49.490;10.908;2023-09-19T06:25:44;0.50;;;0.50;;
9445;SDS011;4761;49.490;10.908;2023-09-19T06:28:10;0.80;;;0.77;;
9445;SDS011;4761;49.490;10.908;2023-09-19T06:30:37;0.70;;;0.70;;
9445;SDS011;4761;49.490;10.908;2023-09-19T06:33:05;0.95;;;0.85;;
9445;SDS011;4761;49.490;10.908;2023-09-19T06:35:32;0.50;;;0.50;;
9445;SDS011;4761;49.490;10.908;2023-09-19T06:38:02;0.50;;;0.50;;
9445;SDS011;4761;49.490;10.908;2023-09-19T06:40:29;0.60;;;0.60;;
9445;SDS011;4761;49.490;10.908;2023-09-19T06:42:56;0.55;;;0.52;;
9445;SDS011;4761;49.490;10.908;2023-09-19T06:45:21;0.70;;;0.70;;
9445;SDS011;4761;49.490;10.908;2023-09-19T06:47:48;0.70;;;0.70;;
9445;SDS011;4761;49.490;10.908;2023-09-19T06:50:15;0.52;;;0.52;;
9445;SDS011;4761;49.490;10.908;2023-09-19T06:52:44;0.60;;;0.60;;
9445;SDS011;4761;49.490;10.908;2023-09-19T06:55:11;0.60;;;0.60;;
9445;SDS011;4761;49.490;10.908;2023-09-19T06:57:38;0.60;;;0.60;;
9445;SDS011;4761;49.490;10.908;2023-09-19T07:00:05;0.60;;;0.60;;
9445;SDS011;4761;49.490;10.908;2023-09-19T07:02:40;0.60;;;0.60;;
9445;SDS011;4761;49.490;10.908;2023-09-19T07:05:06;0.50;;;0.50;;
9445;SDS011;4761;49.490;10.908;2023-09-19T07:07:32;0.63;;;0.60;;
9445;SDS011;4761;49.490;10.908;2023-09-19T07:10:00;0.60;;;0.60;;
9445;SDS011;4761;49.490;10.908;2023-09-19T07:12:26;0.57;;;0.57;;
9445;SDS011;4761;49.490;10.908;2023-09-19T07:14:51;0.60;;;0.60;;
9445;SDS011;4761;49.490;10.908;2023-09-19T07:17:17;0.60;;;0.60;;
9445;SDS011;4761;49.490;10.908;2023-09-19T07:19:44;0.60;;;0.60;;
9445;SDS011;4761;49.490;10.908;2023-09-19T07:22:10;0.70;;;0.70;;
9445;SDS011;4761;49.490;10.908;2023-09-19T07:24:36;0.55;;;0.55;;
9445;SDS011;4761;49.490;10.908;2023-09-19T07:27:01;0.75;;;0.75;;
9445;SDS011;4761;49.490;10.908;2023-09-19T07:29:27;0.50;;;0.50;;
9445;SDS011;4761;49.490;10.908;2023-09-19T07:31:53;0.43;;;0.43;;
9445;SDS011;4761;49.490;10.908;2023-09-19T07:34:19;0.65;;;0.50;;
9445;SDS011;4761;49.490;10.908;2023-09-19T07:36:46;0.70;;;0.70;;
9445;SDS011;4761;49.490;10.908;2023-09-19T07:39:12;0.50;;;0.50;;
9445;SDS011;4761;49.490;10.908;2023-09-19T07:41:38;0.82;;;0.60;;
9445;SDS011;4761;49.490;10.908;2023-09-19T07:44:03;0.73;;;0.73;;
9445;SDS011;4761;49.490;10.908;2023-09-19T07:46:29;0.70;;;0.65;;
9445;SDS011;4761;49.490;10.908;2023-09-19T07:48:56;0.80;;;0.57;;
9445;SDS011;4761;49.490;10.908;2023-09-19T07:51:22;1.92;;;0.60;;
9445;SDS011;4761;49.490;10.908;2023-09-19T07:53:47;0.60;;;0.60;;
9445;SDS011;4761;49.490;10.908;2023-09-19T07:56:13;0.80;;;0.60;;
9445;SDS011;4761;49.490;10.908;2023-09-19T07:58:39;0.60;;;0.60;;
9445;SDS011;4761;49.490;10.908;2023-09-19T08:01:09;1.30;;;0.80;;
9445;SDS011;4761;49.490;10.908;2023-09-19T08:03:36;0.60;;;0.60;;
9445;SDS011;4761;49.490;10.908;2023-09-19T08:06:06;0.63;;;0.63;;
9445;SDS011;4761;49.490;10.908;2023-09-19T08:08:33;0.50;;;0.50;;
9445;SDS011;4761;49.490;10.908;2023-09-19T08:11:02;0.57;;;0.57;;
9445;SDS011;4761;49.490;10.908;2023-09-19T08:13:35;1.48;;;0.90;;
9445;SDS011;4761;49.490;10.908;2023-09-19T08:16:03;2.85;;;0.82;;
9445;SDS011;4761;49.490;10.908;2023-09-19T08:18:28;0.60;;;0.60;;
9445;SDS011;4761;49.490;10.908;2023-09-19T08:20:55;1.55;;;0.80;;
9445;SDS011;4761;49.490;10.908;2023-09-19T08:23:23;0.93;;;0.77;;
9445;SDS011;4761;49.490;10.908;2023-09-19T08:25:49;1.27;;;0.80;;
9445;SDS011;4761;49.490;10.908;2023-09-19T08:28:14;1.90;;;0.80;;
9445;SDS011;4761;49.490;10.908;2023-09-19T08:30:44;0.77;;;0.65;;
9445;SDS011;4761;49.490;10.908;2023-09-19T08:33:12;2.22;;;0.80;;
9445;SDS011;4761;49.490;10.908;2023-09-19T08:35:40;1.65;;;0.88;;
9445;SDS011;4761;49.490;10.908;2023-09-19T08:38:08;1.80;;;0.90;;
9445;SDS011;4761;49.490;10.908;2023-09-19T08:40:42;1.33;;;0.80;;
9445;SDS011;4761;49.490;10.908;2023-09-19T08:43:08;1.35;;;0.82;;
9445;SDS011;4761;49.490;10.908;2023-09-19T08:45:34;1.13;;;0.70;;
9445;SDS011;4761;49.490;10.908;2023-09-19T08:51:06;0.95;;;0.85;;
9445;SDS011;4761;49.490;10.908;2023-09-19T08:53:51;1.42;;;1.10;;
9445;SDS011;4761;49.490;10.908;2023-09-19T08:56:24;1.60;;;1.00;;
9445;SDS011;4761;49.490;10.908;2023-09-19T08:58:55;1.63;;;0.90;;
9445;SDS011;4761;49.490;10.908;2023-09-19T09:01:26;1.88;;;1.17;;
9445;SDS011;4761;49.490;10.908;2023-09-19T09:03:53;1.52;;;1.20;;
9445;SDS011;4761;49.490;10.908;2023-09-19T09:06:20;1.60;;;1.30;;
9445;SDS011;4761;49.490;10.908;2023-09-19T09:08:46;1.30;;;1.15;;
9445;SDS011;4761;49.490;10.908;2023-09-19T09:11:15;2.28;;;1.30;;
9445;SDS011;4761;49.490;10.908;2023-09-19T09:13:42;1.40;;;1.30;;
9445;SDS011;4761;49.490;10.908;2023-09-19T09:16:09;1.58;;;1.48;;
9445;SDS011;4761;49.490;10.908;2023-09-19T09:18:36;3.22;;;1.55;;
9445;SDS011;4761;49.490;10.908;2023-09-19T09:21:02;1.67;;;1.30;;
9445;SDS011;4761;49.490;10.908;2023-09-19T09:23:29;1.67;;;1.40;;
9445;SDS011;4761;49.490;10.908;2023-09-19T09:25:56;2.28;;;1.50;;
9445;SDS011;4761;49.490;10.908;2023-09-19T09:28:26;2.42;;;1.65;;
9445;SDS011;4761;49.490;10.908;2023-09-19T09:30:53;2.22;;;1.35;;
9445;SDS011;4761;49.490;10.908;2023-09-19T09:33:33;3.28;;;1.90;;
9445;SDS011;4761;49.490;10.908;2023-09-19T09:36:00;2.42;;;1.63;;
9445;SDS011;4761;49.490;10.908;2023-09-19T09:38:28;2.25;;;1.73;;
9445;SDS011;4761;49.490;10.908;2023-09-19T09:40:57;2.45;;;1.65;;
9445;SDS011;4761;49.490;10.908;2023-09-19T09:43:32;2.90;;;1.73;;
9445;SDS011;4761;49.490;10.908;2023-09-19T09:46:10;3.25;;;1.80;;
9445;SDS011;4761;49.490;10.908;2023-09-19T09:48:59;3.65;;;1.80;;
9445;SDS011;4761;49.490;10.908;2023-09-19T09:51:50;2.97;;;1.80;;
9445;SDS011;4761;49.490;10.908;2023-09-19T09:54:24;2.97;;;1.90;;
9445;SDS011;4761;49.490;10.908;2023-09-19T09:56:56;3.15;;;1.60;;
9445;SDS011;4761;49.490;10.908;2023-09-19T10:02:21;2.65;;;1.63;;
9445;SDS011;4761;49.490;10.908;2023-09-19T10:05:22;2.17;;;1.60;;
9445;SDS011;4761;49.490;10.908;2023-09-19T10:08:09;2.33;;;1.60;;
9445;SDS011;4761;49.490;10.908;2023-09-19T10:10:38;2.83;;;1.70;;
9445;SDS011;4761;49.490;10.908;2023-09-19T10:13:11;5.05;;;2.03;;
9445;SDS011;4761;49.490;10.908;2023-09-19T10:15:40;4.45;;;2.55;;
9445;SDS011;4761;49.490;10.908;2023-09-19T10:18:11;8.35;;;2.70;;
9445;SDS011;4761;49.490;10.908;2023-09-19T10:20:42;6.18;;;2.65;;
9445;SDS011;4761;49.490;10.908;2023-09-19T10:23:10;7.68;;;2.63;;
9445;SDS011;4761;49.490;10.908;2023-09-19T10:25:43;3.67;;;2.40;;
9445;SDS011;4761;49.490;10.908;2023-09-19T10:28:12;4.60;;;2.70;;
9445;SDS011;4761;49.490;10.908;2023-09-19T10:30:45;5.32;;;2.40;;
9445;SDS011;4761;49.490;10.908;2023-09-19T10:33:16;5.57;;;2.40;;
9445;SDS011;4761;49.490;10.908;2023-09-19T10:35:45;5.20;;;2.22;;
9445;SDS011;4761;49.490;10.908;2023-09-19T10:38:12;5.28;;;2.67;;
9445;SDS011;4761;49.490;10.908;2023-09-19T10:40:39;4.90;;;2.10;;
9445;SDS011;4761;49.490;10.908;2023-09-19T10:43:12;4.90;;;2.20;;
9445;SDS011;4761;49.490;10.908;2023-09-19T10:45:42;3.78;;;2.40;;
9445;SDS011;4761;49.490;10.908;2023-09-19T10:48:10;3.53;;;2.30;;
9445;SDS011;4761;49.490;10.908;2023-09-19T10:50:41;5.32;;;2.30;;
9445;SDS011;4761;49.490;10.908;2023-09-19T10:53:09;5.90;;;2.25;;
9445;SDS011;4761;49.490;10.908;2023-09-19T10:55:37;5.43;;;2.05;;
9445;SDS011;4761;49.490;10.908;2023-09-19T10:58:02;4.22;;;2.22;;
9445;SDS011;4761;49.490;10.908;2023-09-19T11:00:52;5.85;;;2.33;;
9445;SDS011;4761;49.490;10.908;2023-09-19T11:03:20;3.22;;;1.70;;
9445;SDS011;4761;49.490;10.908;2023-09-19T11:06:01;3.58;;;2.05;;
9445;SDS011;4761;49.490;10.908;2023-09-19T11:08:29;3.55;;;1.75;;
9445;SDS011;4761;49.490;10.908;2023-09-19T11:10:57;3.13;;;1.80;;
9445;SDS011;4761;49.490;10.908;2023-09-19T11:13:25;3.13;;;2.05;;
9445;SDS011;4761;49.490;10.908;2023-09-19T11:26:50;6.13;;;1.98;;
9445;SDS011;4761;49.490;10.908;2023-09-19T11:29:26;2.90;;;1.73;;
9445;SDS011;4761;49.490;10.908;2023-09-19T11:31:53;2.92;;;1.90;;
9445;SDS011;4761;49.490;10.908;2023-09-19T11:39:39;4.05;;;1.90;;
9445;SDS011;4761;49.490;10.908;2023-09-19T11:48:15;4.00;;;1.67;;
9445;SDS011;4761;49.490;10.908;2023-09-19T11:50:43;3.22;;;1.98;;
9445;SDS011;4761;49.490;10.908;2023-09-19T11:53:11;5.80;;;2.10;;
9445;SDS011;4761;49.490;10.908;2023-09-19T11:55:38;3.40;;;2.00;;
9445;SDS011;4761;49.490;10.908;2023-09-19T11:58:10;6.18;;;1.98;;
9445;SDS011;4761;49.490;10.908;2023-09-19T12:00:45;4.10;;;1.70;;
9445;SDS011;4761;49.490;10.908;2023-09-19T12:03:11;3.50;;;1.42;;
9445;SDS011;4761;49.490;10.908;2023-09-19T12:05:39;5.32;;;2.08;;
9445;SDS011;4761;49.490;10.908;2023-09-19T12:08:05;3.80;;;2.08;;
9445;SDS011;4761;49.490;10.908;2023-09-19T12:10:34;2.47;;;1.80;;
9445;SDS011;4761;49.490;10.908;2023-09-19T12:13:19;3.25;;;1.90;;
9445;SDS011;4761;49.490;10.908;2023-09-19T12:15:45;3.70;;;2.00;;
9445;SDS011;4761;49.490;10.908;2023-09-19T12:18:31;3.40;;;1.70;;
9445;SDS011;4761;49.490;10.908;2023-09-19T12:20:58;3.40;;;1.95;;
9445;SDS011;4761;49.490;10.908;2023-09-19T12:23:25;3.80;;;1.92;;
9445;SDS011;4761;49.490;10.908;2023-09-19T12:25:50;3.28;;;1.83;;
9445;SDS011;4761;49.490;10.908;2023-09-19T12:28:18;4.78;;;2.60;;
9445;SDS011;4761;49.490;10.908;2023-09-19T12:30:47;5.38;;;2.53;;
9445;SDS011;4761;49.490;10.908;2023-09-19T12:33:16;4.63;;;2.40;;
9445;SDS011;4761;49.490;10.908;2023-09-19T12:35:44;9.10;;;2.72;;
9445;SDS011;4761;49.490;10.908;2023-09-19T12:38:10;3.80;;;2.25;;
9445;SDS011;4761;49.490;10.908;2023-09-19T12:40:37;6.90;;;3.00;;
9445;SDS011;4761;49.490;10.908;2023-09-19T12:43:07;5.15;;;2.58;;
9445;SDS011;4761;49.490;10.908;2023-09-19T12:45:34;5.93;;;2.50;;
9445;SDS011;4761;49.490;10.908;2023-09-19T12:51:34;16.88;;;5.65;;
9445;SDS011;4761;49.490;10.908;2023-09-19T12:53:38;20.95;;;5.50;;
9445;SDS011;4761;49.490;10.908;2023-09-19T12:56:08;23.65;;;4.97;;
9445;SDS011;4761;49.490;10.908;2023-09-19T12:58:51;15.48;;;4.82;;
9445;SDS011;4761;49.490;10.908;2023-09-19T13:01:21;15.63;;;4.70;;
9445;SDS011;4761;49.490;10.908;2023-09-19T13:06:44;13.32;;;4.22;;
9445;SDS011;4761;49.490;10.908;2023-09-19T13:09:13;15.05;;;4.75;;
9445;SDS011;4761;49.490;10.908;2023-09-19T13:11:40;11.18;;;4.35;;
9445;SDS011;4761;49.490;10.908;2023-09-19T13:14:20;14.65;;;4.60;;
9445;SDS011;4761;49.490;10.908;2023-09-19T13:19:50;8.60;;;3.88;;
9445;SDS011;4761;49.490;10.908;2023-09-19T13:25:08;9.15;;;3.63;;
9445;SDS011;4761;49.490;10.908;2023-09-19T13:27:39;13.90;;;4.22;;
9445;SDS011;4761;49.490;10.908;2023-09-19T13:30:05;9.20;;;4.00;;
9445;SDS011;4761;49.490;10.908;2023-09-19T13:32:32;11.90;;;3.97;;
9445;SDS011;4761;49.490;10.908;2023-09-19T13:34:58;9.25;;;3.40;;
9445;SDS011;4761;49.490;10.908;2023-09-19T13:37:23;11.23;;;3.95;;
9445;SDS011;4761;49.490;10.908;2023-09-19T13:39:49;10.35;;;3.72;;
9445;SDS011;4761;49.490;10.908;2023-09-19T13:42:14;12.63;;;3.72;;
9445;SDS011;4761;49.490;10.908;2023-09-19T13:44:41;7.97;;;3.22;;
9445;SDS011;4761;49.490;10.908;2023-09-19T13:47:07;9.10;;;2.85;;
9445;SDS011;4761;49.490;10.908;2023-09-19T13:49:35;9.98;;;3.38;;
9445;SDS011;4761;49.490;10.908;2023-09-19T13:52:01;5.30;;;2.60;;
9445;SDS011;4761;49.490;10.908;2023-09-19T13:54:30;7.65;;;2.80;;
9445;SDS011;4761;49.490;10.908;2023-09-19T13:56:55;7.53;;;3.33;;
9445;SDS011;4761;49.490;10.908;2023-09-19T13:59:21;5.80;;;2.78;;
9445;SDS011;4761;49.490;10.908;2023-09-19T14:01:48;7.05;;;3.08;;
9445;SDS011;4761;49.490;10.908;2023-09-19T14:04:14;7.55;;;2.65;;
9445;SDS011;4761;49.490;10.908;2023-09-19T14:06:43;6.28;;;2.67;;
9445;SDS011;4761;49.490;10.908;2023-09-19T14:09:09;4.57;;;2.47;;
9445;SDS011;4761;49.490;10.908;2023-09-19T14:11:36;5.00;;;2.30;;
9445;SDS011;4761;49.490;10.908;2023-09-19T14:14:02;4.10;;;2.38;;
9445;SDS011;4761;49.490;10.908;2023-09-19T14:16:29;5.03;;;2.33;;
9445;SDS011;4761;49.490;10.908;2023-09-19T14:18:56;8.88;;;2.40;;
9445;SDS011;4761;49.490;10.908;2023-09-19T14:21:22;4.70;;;2.33;;
9445;SDS011;4761;49.490;10.908;2023-09-19T14:23:48;3.78;;;2.08;;
9445;SDS011;4761;49.490;10.908;2023-09-19T14:26:14;6.47;;;2.40;;
9445;SDS011;4761;49.490;10.908;2023-09-19T14:28:41;3.65;;;2.08;;
9445;SDS011;4761;49.490;10.908;2023-09-19T14:33:33;4.22;;;2.05;;
9445;SDS011;4761;49.490;10.908;2023-09-19T14:36:00;4.60;;;2.22;;
9445;SDS011;4761;49.490;10.908;2023-09-19T14:38:28;4.07;;;2.00;;
9445;SDS011;4761;49.490;10.908;2023-09-19T14:41:00;4.13;;;2.22;;
9445;SDS011;4761;49.490;10.908;2023-09-19T14:43:26;3.60;;;2.08;;
9445;SDS011;4761;49.490;10.908;2023-09-19T14:45:54;4.25;;;1.80;;
9445;SDS011;4761;49.490;10.908;2023-09-19T14:48:19;3.22;;;1.80;;
9445;SDS011;4761;49.490;10.908;2023-09-19T14:50:45;3.40;;;1.90;;
9445;SDS011;4761;49.490;10.908;2023-09-19T14:53:13;4.53;;;2.10;;
9445;SDS011;4761;49.490;10.908;2023-09-19T14:55:38;3.53;;;2.10;;
9445;SDS011;4761;49.490;10.908;2023-09-19T14:58:06;3.70;;;2.10;;
9445;SDS011;4761;49.490;10.908;2023-09-19T15:00:32;3.30;;;1.83;;
9445;SDS011;4761;49.490;10.908;2023-09-19T15:02:59;2.53;;;1.77;;
9445;SDS011;4761;49.490;10.908;2023-09-19T15:05:25;4.00;;;1.95;;
9445;SDS011;4761;49.490;10.908;2023-09-19T15:07:50;3.97;;;1.73;;
9445;SDS011;4761;49.490;10.908;2023-09-19T15:10:16;3.20;;;1.67;;
9445;SDS011;4761;49.490;10.908;2023-09-19T15:12:43;3.30;;;1.73;;
9445;SDS011;4761;49.490;10.908;2023-09-19T15:15:09;3.13;;;1.83;;
9445;SDS011;4761;49.490;10.908;2023-09-19T15:17:35;2.85;;;1.58;;
9445;SDS011;4761;49.490;10.908;2023-09-19T15:20:01;2.47;;;1.52;;
9445;SDS011;4761;49.490;10.908;2023-09-19T15:22:27;3.03;;;1.73;;
9445;SDS011;4761;49.490;10.908;2023-09-19T15:24:52;2.42;;;1.58;;
9445;SDS011;4761;49.490;10.908;2023-09-19T15:27:18;1.95;;;1.38;;
9445;SDS011;4761;49.490;10.908;2023-09-19T15:29:44;2.85;;;1.40;;
9445;SDS011;4761;49.490;10.908;2023-09-19T15:32:11;2.33;;;1.58;;
9445;SDS011;4761;49.490;10.908;2023-09-19T15:34:36;3.63;;;1.65;;
9445;SDS011;4761;49.490;10.908;2023-09-19T15:37:02;2.38;;;1.30;;
9445;SDS011;4761;49.490;10.908;2023-09-19T15:39:29;2.10;;;1.33;;
9445;SDS011;4761;49.490;10.908;2023-09-19T15:41:58;2.90;;;1.60;;
9445;SDS011;4761;49.490;10.908;2023-09-19T15:44:24;2.78;;;1.40;;
9445;SDS011;4761;49.490;10.908;2023-09-19T15:46:52;2.88;;;1.40;;
9445;SDS011;4761;49.490;10.908;2023-09-19T15:49:17;1.80;;;1.40;;
9445;SDS011;4761;49.490;10.908;2023-09-19T15:51:43;1.98;;;1.45;;
9445;SDS011;4761;49.490;10.908;2023-09-19T15:54:10;1.92;;;1.40;;
9445;SDS011;4761;49.490;10.908;2023-09-19T15:56:40;1.75;;;1.30;;
9445;SDS011;4761;49.490;10.908;2023-09-19T15:59:06;1.40;;;1.10;;
9445;SDS011;4761;49.490;10.908;2023-09-19T16:01:32;1.65;;;1.20;;
9445;SDS011;4761;49.490;10.908;2023-09-19T16:03:58;2.65;;;1.30;;
9445;SDS011;4761;49.490;10.908;2023-09-19T16:06:24;1.33;;;1.23;;
9445;SDS011;4761;49.490;10.908;2023-09-19T16:08:52;2.20;;;1.10;;